Terminal Aerodrome Forecast
Issued by NWS

Home | Current Version | Previous Version | Graphics & Text | Print | Product List | Glossary On
Versions: 1 2 3 4 5 6 7 8 9 10 11 12 13 14 15 16 17 18 19 20 21
000
FTUS43 KGRB 221451 AAC
TAFCWA
TAF AMD
KCWA 221451Z 2215/2312 VRB03KT P6SM BKN015
      TEMPO 2215/2217 BKN025
     FM221700 24005KT P6SM BKN035
     FM222100 26005KT P6SM SCT035 BKN060
     FM230100 VRB02KT P6SM SCT060
     FM230800 00000KT 5SM BR SCT020 BKN100=

USA.gov is the U.S. government's official web portal to all federal, state and local government web resources and services.